createdAt,value
2018-05-11T00:00:30.245Z,1.40
2018-05-11T00:02:57.861Z,1.70
2018-05-11T00:05:24.904Z,1.73
2018-05-11T00:07:51.174Z,1.90
2018-05-11T00:10:17.653Z,2.07
2018-05-11T00:12:44.221Z,2.17
2018-05-11T00:15:11.088Z,1.87
2018-05-11T00:17:38.592Z,1.70
2018-05-11T00:20:06.473Z,2.00
2018-05-11T00:22:34.024Z,2.27
2018-05-11T00:25:00.992Z,2.73
2018-05-11T00:27:27.197Z,3.00
2018-05-11T00:29:54.172Z,2.90
2018-05-11T00:32:20.388Z,3.40
2018-05-11T00:34:47.437Z,2.50
2018-05-11T00:37:13.736Z,3.07
2018-05-11T00:39:39.941Z,4.10
2018-05-11T00:42:06.191Z,3.43
2018-05-11T00:44:32.429Z,3.83
2018-05-11T00:46:59.541Z,3.53
2018-05-11T00:49:27.218Z,3.27
2018-05-11T00:51:54.901Z,3.70
2018-05-11T00:54:21.123Z,6.67
2018-05-11T00:56:47.801Z,5.27
2018-05-11T00:59:14.600Z,4.23
2018-05-11T01:01:41.595Z,3.73
2018-05-11T01:04:09.044Z,4.07
2018-05-11T01:06:35.305Z,4.30
2018-05-11T01:09:01.997Z,4.60
2018-05-11T01:11:28.967Z,4.77
2018-05-11T01:13:55.537Z,5.83
2018-05-11T01:16:21.783Z,3.73
2018-05-11T01:18:48.786Z,4.70
2018-05-11T01:21:16.742Z,3.80
2018-05-11T01:23:43.733Z,4.53
2018-05-11T01:26:09.958Z,6.00
2018-05-11T01:28:36.193Z,7.27
2018-05-11T01:31:02.438Z,5.43
2018-05-11T01:33:28.939Z,5.30
2018-05-11T01:35:55.918Z,9.57
2018-05-11T01:38:22.134Z,5.50
2018-05-11T01:40:49.617Z,6.20
2018-05-11T01:43:16.430Z,7.90
2018-05-11T01:45:44.030Z,8.37
2018-05-11T01:48:10.709Z,5.87
2018-05-11T01:50:37.421Z,5.70
2018-05-11T01:53:03.645Z,7.60
2018-05-11T01:55:30.470Z,8.60
2018-05-11T01:57:57.437Z,7.77
2018-05-11T02:00:24.087Z,7.73
2018-05-11T02:02:50.341Z,8.20
2018-05-11T02:05:16.996Z,8.10
2018-05-11T02:07:43.550Z,9.83
2018-05-11T02:10:09.765Z,6.30
2018-05-11T02:12:35.993Z,7.90
2018-05-11T02:15:02.878Z,14.67
2018-05-11T02:17:29.657Z,11.03
2018-05-11T02:19:56.445Z,9.00
2018-05-11T02:22:23.245Z,7.27
2018-05-11T02:24:50.213Z,10.20
2018-05-11T02:27:17.141Z,10.40
2018-05-11T02:29:44.112Z,11.80
2018-05-11T02:32:10.325Z,8.60
2018-05-11T02:34:37.309Z,8.83
2018-05-11T02:37:03.537Z,8.77
2018-05-11T02:39:29.853Z,8.00
2018-05-11T02:41:57.477Z,9.90
2018-05-11T02:44:24.106Z,7.73
2018-05-11T02:46:50.301Z,11.83
2018-05-11T02:49:17.105Z,7.10
2018-05-11T02:51:44.043Z,6.77
2018-05-11T02:54:10.265Z,8.90
2018-05-11T02:56:36.797Z,7.70
2018-05-11T02:59:03.040Z,10.40
2018-05-11T03:01:29.255Z,12.83
2018-05-11T03:03:55.985Z,8.70
2018-05-11T03:06:22.946Z,9.00
2018-05-11T03:08:49.220Z,9.17
2018-05-11T03:11:15.442Z,8.93
2018-05-11T03:13:42.085Z,14.03
2018-05-11T03:16:08.301Z,10.07
2018-05-11T03:18:34.591Z,10.40
2018-05-11T03:21:01.454Z,8.07
2018-05-11T03:23:28.913Z,10.20
2018-05-11T03:25:55.873Z,9.07
2018-05-11T03:28:22.813Z,11.20
2018-05-11T03:30:49.773Z,10.70
2018-05-11T03:33:16.724Z,6.83
2018-05-11T03:35:43.776Z,9.30
2018-05-11T03:38:11.397Z,8.70
2018-05-11T03:40:37.637Z,13.77
2018-05-11T03:43:04.365Z,11.70
2018-05-11T03:45:30.608Z,7.23
2018-05-11T03:47:57.509Z,9.77
2018-05-11T03:50:25.173Z,7.43
2018-05-11T03:52:52.125Z,6.73
2018-05-11T03:55:18.333Z,8.20
2018-05-11T03:57:44.944Z,8.30
2018-05-11T04:00:11.173Z,6.17
2018-05-11T04:02:50.764Z,5.50
2018-05-11T04:05:30.754Z,7.90
2018-05-11T04:08:09.373Z,5.80
2018-05-11T04:10:35.620Z,8.13
2018-05-11T04:13:03.592Z,6.47
2018-05-11T04:15:29.785Z,5.87
2018-05-11T04:17:57.051Z,5.10
2018-05-11T04:20:23.261Z,5.83
2018-05-11T04:22:50.845Z,3.10
2018-05-11T04:25:17.072Z,4.03
2018-05-11T04:27:43.313Z,4.47
2018-05-11T04:30:09.620Z,5.50
2018-05-11T04:32:35.950Z,7.77
2018-05-11T04:35:04.977Z,6.17
2018-05-11T04:37:31.179Z,6.13
2018-05-11T04:39:57.785Z,3.73
2018-05-11T04:42:24.004Z,3.80
2018-05-11T04:44:50.613Z,3.80
2018-05-11T04:47:18.030Z,3.50
2018-05-11T04:49:44.833Z,3.60
2018-05-11T04:52:12.155Z,3.70
2018-05-11T04:54:38.381Z,3.13
2018-05-11T04:57:05.065Z,3.70
2018-05-11T04:59:32.358Z,6.00
2018-05-11T05:01:58.583Z,3.90
2018-05-11T05:04:25.921Z,2.73
2018-05-11T05:06:52.893Z,2.80
2018-05-11T05:09:19.445Z,3.27
2018-05-11T05:11:45.673Z,2.70
2018-05-11T05:14:12.797Z,7.00
2018-05-11T05:16:39.775Z,9.17
2018-05-11T05:19:06.675Z,8.33
2018-05-11T05:21:34.085Z,4.90
2018-05-11T05:24:00.301Z,2.93
2018-05-11T05:26:28.525Z,3.17
2018-05-11T05:28:54.749Z,3.43
2018-05-11T05:31:20.966Z,4.67
2018-05-11T05:33:47.867Z,4.97
2018-05-11T05:36:14.489Z,2.90
2018-05-11T05:38:40.702Z,2.60
2018-05-11T05:41:06.901Z,2.80
2018-05-11T05:43:34.232Z,4.80
2018-05-11T05:46:00.999Z,3.50
2018-05-11T05:48:28.461Z,3.40
2018-05-11T05:50:56.261Z,3.83
2018-05-11T05:53:22.481Z,2.73
2018-05-11T05:55:49.168Z,5.30
2018-05-11T05:58:15.680Z,2.83
2018-05-11T06:00:41.893Z,4.50
2018-05-11T06:03:08.859Z,3.70
2018-05-11T06:05:35.532Z,3.70
2018-05-11T06:08:02.063Z,3.80
2018-05-11T06:10:28.293Z,2.80
2018-05-11T06:12:54.905Z,2.63
2018-05-11T06:15:22.205Z,2.17
2018-05-11T06:17:48.816Z,3.10
2018-05-11T06:20:15.062Z,3.17
2018-05-11T06:22:42.112Z,2.33
2018-05-11T06:25:08.346Z,2.50
2018-05-11T06:27:34.602Z,5.50
2018-05-11T06:30:00.877Z,2.87
2018-05-11T06:32:27.645Z,3.30
2018-05-11T06:34:55.205Z,4.57
2018-05-11T06:37:22.282Z,2.27
2018-05-11T06:39:48.998Z,2.50
2018-05-11T06:42:16.785Z,3.10
2018-05-11T06:44:43.027Z,3.23
2018-05-11T06:47:09.853Z,2.83
2018-05-11T06:49:37.832Z,2.63
2018-05-11T06:52:05.128Z,3.50
2018-05-11T06:54:32.791Z,4.00
2018-05-11T06:56:59.714Z,3.17
2018-05-11T06:59:25.936Z,3.40
2018-05-11T07:01:53.026Z,2.97
2018-05-11T07:04:19.735Z,4.27
2018-05-11T07:06:46.693Z,3.70
2018-05-11T07:09:14.140Z,4.10
2018-05-11T07:11:41.097Z,5.30
2018-05-11T07:14:08.507Z,4.70
2018-05-11T07:16:34.726Z,4.93
2018-05-11T07:19:00.967Z,4.33
2018-05-11T07:21:27.237Z,4.77
2018-05-11T07:23:53.454Z,3.40
2018-05-11T07:26:19.778Z,4.80
2018-05-11T07:28:46.616Z,4.13
2018-05-11T07:31:12.873Z,3.80
2018-05-11T07:33:39.377Z,6.70
2018-05-11T07:36:05.614Z,4.20
2018-05-11T07:38:32.246Z,5.27
2018-05-11T07:40:58.950Z,3.77
2018-05-11T07:43:25.292Z,10.30
2018-05-11T07:45:52.159Z,5.80
2018-05-11T07:48:19.549Z,7.67
2018-05-11T07:50:46.200Z,6.23
2018-05-11T07:53:12.857Z,6.67
2018-05-11T07:55:39.649Z,7.30
2018-05-11T07:58:06.611Z,4.90
2018-05-11T08:00:34.374Z,6.80
2018-05-11T08:03:02.260Z,5.90
2018-05-11T08:05:28.863Z,5.40
2018-05-11T08:07:55.084Z,5.27
2018-05-11T08:10:21.983Z,5.70
2018-05-11T08:12:48.211Z,4.47
2018-05-11T08:15:15.201Z,7.47
2018-05-11T08:17:41.468Z,7.60
2018-05-11T08:20:08.063Z,7.43
2018-05-11T08:22:34.311Z,5.70
2018-05-11T08:25:00.532Z,4.67
2018-05-11T08:27:27.156Z,5.67
2018-05-11T08:29:53.816Z,7.60
2018-05-11T08:32:20.046Z,4.07
2018-05-11T08:34:47.285Z,7.53
2018-05-11T08:37:14.951Z,5.90
2018-05-11T08:39:41.909Z,5.50
2018-05-11T08:42:08.155Z,4.80
2018-05-11T08:44:34.384Z,5.57
2018-05-11T08:47:02.319Z,6.20
2018-05-11T08:49:29.983Z,8.47
2018-05-11T08:51:56.650Z,3.43
2018-05-11T08:54:23.609Z,3.70
2018-05-11T08:56:51.272Z,5.90
2018-05-11T08:59:18.642Z,5.37
2018-05-11T09:01:45.369Z,8.93
2018-05-11T09:04:12.774Z,5.60
2018-05-11T09:06:39.353Z,6.03
2018-05-11T09:09:07.049Z,6.13
2018-05-11T09:11:34.014Z,5.63
2018-05-11T09:14:00.252Z,5.33
2018-05-11T09:16:26.489Z,6.10
2018-05-11T09:18:52.813Z,6.03
2018-05-11T09:21:19.614Z,5.40
2018-05-11T09:23:46.226Z,4.70
2018-05-11T09:26:12.429Z,5.87
2018-05-11T09:28:39.762Z,4.60
2018-05-11T09:31:05.992Z,5.03
2018-05-11T09:33:32.975Z,4.93
2018-05-11T09:36:00.534Z,10.57
2018-05-11T09:38:28.104Z,13.03
2018-05-11T09:40:55.066Z,10.20
2018-05-11T09:43:21.285Z,5.20
2018-05-11T09:45:48.274Z,6.80
2018-05-11T09:48:14.990Z,5.73
2018-05-11T09:50:41.821Z,6.30
2018-05-11T09:53:08.773Z,6.80
2018-05-11T09:55:36.338Z,6.80
2018-05-11T09:58:03.869Z,6.00
2018-05-11T10:00:30.563Z,10.90
2018-05-11T10:02:56.773Z,6.13
2018-05-11T10:05:24.379Z,5.67
2018-05-11T10:07:50.632Z,5.63
2018-05-11T10:10:16.861Z,3.60
2018-05-11T10:12:43.101Z,8.77
2018-05-11T10:15:09.334Z,9.67
2018-05-11T10:17:35.631Z,8.20
2018-05-11T10:20:01.913Z,8.23
2018-05-11T10:22:29.520Z,6.50
2018-05-11T10:24:56.920Z,9.33
2018-05-11T10:27:23.185Z,4.40
2018-05-11T10:29:49.421Z,5.00
2018-05-11T10:32:16.073Z,6.63
2018-05-11T10:34:42.322Z,5.53
2018-05-11T10:37:09.281Z,7.73
2018-05-11T10:39:36.291Z,5.43
2018-05-11T10:42:02.515Z,4.73
2018-05-11T10:44:29.214Z,4.90
2018-05-11T10:46:57.285Z,7.17
2018-05-11T10:49:25.020Z,5.67
2018-05-11T10:51:51.519Z,5.27
2018-05-11T10:54:18.441Z,4.03
2018-05-11T10:56:47.513Z,4.20
2018-05-11T10:59:14.235Z,4.77
2018-05-11T11:01:40.456Z,4.13
2018-05-11T11:04:07.272Z,3.23
2018-05-11T11:06:34.299Z,4.37
2018-05-11T11:09:00.543Z,3.57
2018-05-11T11:11:28.192Z,4.07
2018-05-11T11:13:54.445Z,3.97
2018-05-11T11:16:21.405Z,3.60
2018-05-11T11:18:49.693Z,2.50
2018-05-11T11:21:17.240Z,4.27
2018-05-11T11:23:43.805Z,3.67
2018-05-11T11:26:10.045Z,4.10
2018-05-11T11:28:36.261Z,3.57
2018-05-11T11:31:03.937Z,2.60
2018-05-11T11:33:30.161Z,3.20
2018-05-11T11:35:57.126Z,2.60
2018-05-11T11:38:23.374Z,4.13
2018-05-11T11:40:49.646Z,2.50
2018-05-11T11:43:16.192Z,2.90
2018-05-11T11:45:42.409Z,2.50
2018-05-11T11:48:09.075Z,2.57
2018-05-11T11:50:35.749Z,2.70
2018-05-11T11:53:03.041Z,2.60
2018-05-11T11:55:29.257Z,2.60
2018-05-11T11:57:55.981Z,1.90
2018-05-11T12:00:22.941Z,2.80
2018-05-11T12:02:49.904Z,3.87
2018-05-11T12:05:16.437Z,3.10
2018-05-11T12:07:42.657Z,3.17
2018-05-11T12:10:09.945Z,4.47
2018-05-11T12:12:36.182Z,2.80
2018-05-11T12:15:02.438Z,2.67
2018-05-11T12:17:29.072Z,4.97
2018-05-11T12:19:55.800Z,3.60
2018-05-11T12:22:22.017Z,2.40
2018-05-11T12:24:48.977Z,3.63
2018-05-11T12:27:15.822Z,2.90
2018-05-11T12:29:42.041Z,2.23
2018-05-11T12:32:09.006Z,2.10
2018-05-11T12:34:35.817Z,2.20
2018-05-11T12:37:02.047Z,3.30
2018-05-11T12:39:29.349Z,2.70
2018-05-11T12:41:55.619Z,2.20
2018-05-11T12:44:21.895Z,3.23
2018-05-11T12:46:49.320Z,8.33
2018-05-11T12:49:16.130Z,6.10
2018-05-11T12:51:42.868Z,2.73
2018-05-11T12:54:09.094Z,4.00
2018-05-11T12:56:36.649Z,4.30
2018-05-11T12:59:03.599Z,3.50
2018-05-11T13:01:30.557Z,3.10
2018-05-11T13:03:58.132Z,3.50
2018-05-11T13:06:24.805Z,3.47
2018-05-11T13:08:51.013Z,3.10
2018-05-11T13:11:17.229Z,2.50
2018-05-11T13:13:45.101Z,5.13
2018-05-11T13:16:27.001Z,2.93
2018-05-11T13:18:53.951Z,3.10
2018-05-11T13:21:20.927Z,2.83
2018-05-11T13:23:47.141Z,3.20
2018-05-11T13:26:13.765Z,6.47
2018-05-11T13:28:40.728Z,3.20
2018-05-11T13:31:08.701Z,3.33
2018-05-11T13:33:34.933Z,3.30
2018-05-11T13:36:01.915Z,4.03
2018-05-11T13:38:28.609Z,3.27
2018-05-11T13:40:54.846Z,3.43
2018-05-11T13:43:21.089Z,2.93
2018-05-11T13:45:48.545Z,3.00
2018-05-11T13:48:15.413Z,3.17
2018-05-11T13:50:41.893Z,3.10
2018-05-11T13:53:08.125Z,2.80
2018-05-11T13:55:35.033Z,6.83
2018-05-11T13:58:02.079Z,3.37
2018-05-11T14:00:29.001Z,2.77
2018-05-11T14:02:57.780Z,2.47
2018-05-11T14:05:24.701Z,3.40
2018-05-11T14:07:50.970Z,4.47
2018-05-11T14:10:17.286Z,2.77
2018-05-11T14:12:43.832Z,4.07
2018-05-11T14:15:10.633Z,5.73
2018-05-11T14:17:38.057Z,3.57
2018-05-11T14:20:04.302Z,2.30
2018-05-11T14:22:31.113Z,2.20
2018-05-11T14:24:57.403Z,2.37
2018-05-11T14:27:23.561Z,2.33
2018-05-11T14:29:49.817Z,3.77
2018-05-11T14:32:16.038Z,3.50
2018-05-11T14:34:43.070Z,2.40
2018-05-11T14:37:10.051Z,3.13
2018-05-11T14:39:36.302Z,1.80
2018-05-11T14:42:03.096Z,2.77
2018-05-11T14:44:30.062Z,2.50
2018-05-11T14:46:57.252Z,2.63
2018-05-11T14:49:23.923Z,2.37
2018-05-11T14:51:50.789Z,2.10
2018-05-11T14:54:17.899Z,5.10
2018-05-11T14:56:44.598Z,2.47
2018-05-11T14:59:11.562Z,2.47
2018-05-11T15:01:38.630Z,3.03
2018-05-11T15:04:05.264Z,2.70
2018-05-11T15:06:32.294Z,2.60
2018-05-11T15:08:59.969Z,2.53
2018-05-11T15:11:26.937Z,2.70
2018-05-11T15:13:53.582Z,2.67
2018-05-11T15:16:19.801Z,2.30
2018-05-11T15:18:46.069Z,2.50
2018-05-11T15:21:12.976Z,3.20
2018-05-11T15:23:39.214Z,2.17
2018-05-11T15:26:05.434Z,2.57
2018-05-11T15:28:32.426Z,2.93
2018-05-11T15:30:58.985Z,3.13
2018-05-11T15:33:25.629Z,2.80
2018-05-11T15:35:51.864Z,4.60
2018-05-11T15:38:18.093Z,3.17
2018-05-11T15:40:44.990Z,3.20
2018-05-11T15:43:12.354Z,3.03
2018-05-11T15:45:39.321Z,4.13
2018-05-11T15:48:05.993Z,2.83
2018-05-11T15:50:32.689Z,2.43
2018-05-11T15:52:59.640Z,2.57
2018-05-11T15:55:26.685Z,2.60
2018-05-11T15:57:53.294Z,2.93
2018-05-11T16:00:19.554Z,2.77
2018-05-11T16:02:45.793Z,2.80
2018-05-11T16:05:12.451Z,3.37
2018-05-11T16:07:39.882Z,3.50
2018-05-11T16:10:06.871Z,3.33
2018-05-11T16:12:33.889Z,3.30
2018-05-11T16:15:00.096Z,2.93
2018-05-11T16:17:26.354Z,2.10
2018-05-11T16:19:53.125Z,4.23
2018-05-11T16:22:20.076Z,3.23
2018-05-11T16:24:47.540Z,3.27
2018-05-11T16:27:14.519Z,4.50
2018-05-11T16:29:40.804Z,8.70
2018-05-11T16:32:07.348Z,3.60
2018-05-11T16:34:35.509Z,5.67
2018-05-11T16:37:02.711Z,4.00
2018-05-11T16:39:30.092Z,4.20
2018-05-11T16:41:56.792Z,7.67
2018-05-11T16:44:23.514Z,3.33
2018-05-11T16:46:50.403Z,3.17
2018-05-11T16:49:18.007Z,3.23
2018-05-11T16:51:44.742Z,2.60
2018-05-11T16:54:10.982Z,4.80
2018-05-11T16:56:37.896Z,2.70
2018-05-11T16:59:05.224Z,4.53
2018-05-11T17:01:32.929Z,7.40
2018-05-11T17:04:00.601Z,6.40
2018-05-11T17:06:27.928Z,3.23
2018-05-11T17:08:56.141Z,3.97
2018-05-11T17:11:22.943Z,2.70
2018-05-11T17:13:49.203Z,2.20
2018-05-11T17:16:16.763Z,2.13
2018-05-11T17:18:42.987Z,2.40
2018-05-11T17:21:09.954Z,2.40
2018-05-11T17:23:36.981Z,4.63
2018-05-11T17:26:03.236Z,3.60
2018-05-11T17:28:29.937Z,3.03
2018-05-11T17:30:56.577Z,3.00
2018-05-11T17:33:22.901Z,2.07
2018-05-11T17:35:49.626Z,2.43
2018-05-11T17:38:16.460Z,1.97
2018-05-11T17:40:43.454Z,4.13
2018-05-11T17:43:09.689Z,3.47
2018-05-11T17:45:35.936Z,4.17
2018-05-11T17:48:02.597Z,3.23
2018-05-11T17:50:29.392Z,3.33
2018-05-11T17:52:55.625Z,5.00
2018-05-11T17:55:21.857Z,3.60
2018-05-11T17:57:48.469Z,3.07
2018-05-11T18:00:15.479Z,6.50
2018-05-11T18:02:42.201Z,3.03
2018-05-11T18:05:08.939Z,3.30
2018-05-11T18:07:35.173Z,12.27
2018-05-11T18:10:01.426Z,4.63
2018-05-11T18:12:28.364Z,3.73
2018-05-11T18:14:57.133Z,5.30
2018-05-11T18:17:24.122Z,4.93
2018-05-11T18:19:50.393Z,2.93
2018-05-11T18:22:16.669Z,3.40
2018-05-11T18:24:44.431Z,3.57
2018-05-11T18:27:12.139Z,3.10
2018-05-11T18:29:38.813Z,5.17
2018-05-11T18:32:05.107Z,2.47
2018-05-11T18:34:31.821Z,4.00
2018-05-11T18:36:59.165Z,3.90
2018-05-11T18:39:26.485Z,2.80
2018-05-11T18:41:53.566Z,4.47
2018-05-11T18:44:20.341Z,4.73
2018-05-11T18:46:47.909Z,2.37
2018-05-11T18:49:14.566Z,2.57
2018-05-11T18:51:41.101Z,2.60
2018-05-11T18:54:07.599Z,3.17
2018-05-11T18:56:34.047Z,4.93
2018-05-11T18:59:00.285Z,2.63
2018-05-11T19:01:27.869Z,3.10
2018-05-11T19:03:55.482Z,3.33
2018-05-11T19:06:22.719Z,2.63
2018-05-11T19:08:49.527Z,2.50
2018-05-11T19:11:17.237Z,3.10
2018-05-11T19:13:44.261Z,2.90
2018-05-11T19:16:10.606Z,3.03
2018-05-11T19:18:36.930Z,4.83
2018-05-11T19:21:03.501Z,2.30
2018-05-11T19:23:30.543Z,3.33
2018-05-11T19:25:56.757Z,2.70
2018-05-11T19:28:23.725Z,3.30
2018-05-11T19:30:50.616Z,2.37
2018-05-11T19:33:17.477Z,4.30
2018-05-11T19:35:44.209Z,3.40
2018-05-11T19:38:10.955Z,3.87
2018-05-11T19:40:37.626Z,3.90
2018-05-11T19:43:04.268Z,3.63
2018-05-11T19:45:30.502Z,2.60
2018-05-11T19:47:57.097Z,2.00
2018-05-11T19:50:23.912Z,2.87
2018-05-11T19:52:51.296Z,3.70
2018-05-11T19:55:17.529Z,2.57
2018-05-11T19:57:44.253Z,2.97
2018-05-11T20:00:11.763Z,2.80
2018-05-11T20:02:38.465Z,7.23
2018-05-11T20:05:05.910Z,3.97
2018-05-11T20:07:32.883Z,2.50
2018-05-11T20:09:59.633Z,3.30
2018-05-11T20:12:25.805Z,1.80
2018-05-11T20:14:52.032Z,3.97
2018-05-11T20:17:18.345Z,1.70
2018-05-11T20:19:44.579Z,2.20
2018-05-11T20:22:11.680Z,5.10
2018-05-11T20:24:37.911Z,2.83
2018-05-11T20:27:05.247Z,3.87
2018-05-11T20:29:31.486Z,3.17
2018-05-11T20:31:58.138Z,4.20
2018-05-11T20:34:24.796Z,4.30
2018-05-11T20:36:51.038Z,6.37
2018-05-11T20:39:17.653Z,4.67
2018-05-11T20:41:44.398Z,11.37
2018-05-11T20:44:11.045Z,3.50
2018-05-11T20:46:37.698Z,3.70
2018-05-11T20:49:05.230Z,3.13
2018-05-11T20:51:31.877Z,3.37
2018-05-11T20:53:58.113Z,3.20
2018-05-11T20:56:24.847Z,4.70
2018-05-11T20:58:51.895Z,4.43
2018-05-11T21:01:18.120Z,4.87
2018-05-11T21:03:44.465Z,3.13
2018-05-11T21:06:11.221Z,2.00
2018-05-11T21:08:37.789Z,3.60
2018-05-11T21:11:04.462Z,3.83
2018-05-11T21:13:31.438Z,3.50
2018-05-11T21:15:58.194Z,2.60
2018-05-11T21:18:25.032Z,3.73
2018-05-11T21:20:51.295Z,3.50
2018-05-11T21:23:17.512Z,4.83
2018-05-11T21:25:43.766Z,3.10
2018-05-11T21:28:10.390Z,2.10
2018-05-11T21:30:36.615Z,2.30
2018-05-11T21:33:02.841Z,2.90
2018-05-11T21:35:29.513Z,2.23
2018-05-11T21:37:55.721Z,2.17
2018-05-11T21:40:21.952Z,2.17
2018-05-11T21:42:48.175Z,1.87
2018-05-11T21:45:15.166Z,2.60
2018-05-11T21:47:42.021Z,2.60
2018-05-11T21:50:08.968Z,2.10
2018-05-11T21:52:35.649Z,3.07
2018-05-11T21:55:01.873Z,3.00
2018-05-11T21:57:28.856Z,2.70
2018-05-11T21:59:56.345Z,2.70
2018-05-11T22:02:23.062Z,2.83
2018-05-11T22:04:50.662Z,2.77
2018-05-11T22:07:16.880Z,2.03
2018-05-11T22:09:43.534Z,5.50
2018-05-11T22:12:09.777Z,2.70
2018-05-11T22:14:35.981Z,5.80
2018-05-11T22:17:03.131Z,4.60
2018-05-11T22:19:30.104Z,8.07
2018-05-11T22:21:56.336Z,2.77
2018-05-11T22:24:22.572Z,3.50
2018-05-11T22:26:50.221Z,3.67
2018-05-11T22:29:17.185Z,3.17
2018-05-11T22:31:43.397Z,5.80
2018-05-11T22:34:11.138Z,1.90
2018-05-11T22:36:37.344Z,3.83
2018-05-11T22:39:04.901Z,2.00
2018-05-11T22:41:31.119Z,1.90
2018-05-11T22:43:57.664Z,4.67
2018-05-11T22:46:23.904Z,2.50
2018-05-11T22:48:50.446Z,3.80
2018-05-11T22:51:17.205Z,2.70
2018-05-11T22:53:43.936Z,3.50
2018-05-11T22:56:10.597Z,1.60
2018-05-11T22:58:37.405Z,1.70
2018-05-11T23:01:05.060Z,2.03
2018-05-11T23:03:32.261Z,1.70
2018-05-11T23:05:59.117Z,1.93
2018-05-11T23:08:25.346Z,6.80
2018-05-11T23:10:52.253Z,4.43
2018-05-11T23:13:19.603Z,2.63
2018-05-11T23:15:46.557Z,2.93
2018-05-11T23:18:13.557Z,2.40
2018-05-11T23:20:39.792Z,1.60
2018-05-11T23:23:06.037Z,2.60
2018-05-11T23:25:32.820Z,1.57
2018-05-11T23:27:59.785Z,1.80
2018-05-11T23:30:26.769Z,1.60
2018-05-11T23:32:53.012Z,2.13
2018-05-11T23:35:20.942Z,2.57
2018-05-11T23:37:47.901Z,2.27
2018-05-11T23:40:29.112Z,1.80
2018-05-11T23:42:55.344Z,1.80
2018-05-11T23:45:21.656Z,3.67
2018-05-11T23:47:48.197Z,3.53
2018-05-11T23:50:14.917Z,2.40
2018-05-11T23:52:42.207Z,1.73
2018-05-11T23:55:08.416Z,1.60
2018-05-11T23:57:35.253Z,2.20
